createdAt,value
2023-05-22T00:02:00.971Z,70.93
2023-05-22T00:04:30.326Z,72.20
2023-05-22T00:06:59.486Z,74.40
2023-05-22T00:09:28.771Z,80.17
2023-05-22T00:11:57.871Z,78.03
2023-05-22T00:14:26.800Z,79.00
2023-05-22T00:16:58.743Z,84.30
2023-05-22T00:19:30.675Z,80.30
2023-05-22T00:21:59.988Z,77.47
2023-05-22T00:24:28.997Z,78.90
2023-05-22T00:27:04.698Z,79.00
2023-05-22T00:29:35.990Z,83.97
2023-05-22T00:32:07.844Z,79.60
2023-05-22T00:34:37.032Z,78.57
2023-05-22T00:37:06.404Z,75.00
2023-05-22T00:39:36.028Z,76.13
2023-05-22T00:42:05.521Z,83.17
2023-05-22T00:44:34.917Z,87.77
2023-05-22T00:47:04.004Z,75.10
2023-05-22T00:49:34.657Z,80.20
2023-05-22T00:52:04.288Z,83.63
2023-05-22T00:54:34.108Z,76.40
2023-05-22T00:57:03.927Z,80.80
2023-05-22T00:59:33.904Z,79.77
2023-05-22T01:02:03.260Z,76.43
2023-05-22T01:04:33.843Z,78.13
2023-05-22T01:07:03.439Z,81.70
2023-05-22T01:09:32.568Z,81.67
2023-05-22T01:12:11.921Z,78.80
2023-05-22T01:14:48.948Z,80.93
2023-05-22T01:17:24.945Z,80.63
2023-05-22T01:20:10.477Z,83.30
2023-05-22T01:23:07.352Z,77.83
2023-05-22T01:25:58.271Z,62.57
2023-05-22T01:28:40.949Z,77.47
2023-05-22T01:31:13.484Z,72.47
2023-05-22T01:33:47.081Z,77.83
2023-05-22T01:36:37.286Z,77.37
2023-05-22T01:39:07.536Z,78.50
2023-05-22T01:41:55.445Z,81.33
2023-05-22T01:44:25.463Z,87.40
2023-05-22T01:46:56.652Z,80.23
2023-05-22T01:49:26.769Z,77.90
2023-05-22T01:52:00.920Z,84.13
2023-05-22T01:54:38.273Z,76.47
2023-05-22T01:57:13.878Z,83.37
2023-05-22T01:59:48.802Z,80.87
2023-05-22T02:02:21.365Z,78.97
2023-05-22T02:04:57.399Z,79.37
2023-05-22T02:07:26.977Z,87.73
2023-05-22T02:09:59.360Z,82.17
2023-05-22T02:12:28.920Z,85.97
2023-05-22T02:14:58.213Z,85.70
2023-05-22T02:17:29.505Z,86.67
2023-05-22T02:20:01.801Z,89.37
2023-05-22T02:22:30.919Z,88.03
2023-05-22T02:24:59.931Z,83.03
2023-05-22T02:27:29.047Z,89.97
2023-05-22T02:29:58.353Z,85.23
2023-05-22T02:32:29.021Z,84.00
2023-05-22T02:34:58.898Z,86.87
2023-05-22T02:37:27.976Z,89.03
2023-05-22T02:39:58.140Z,90.60
2023-05-22T02:42:27.404Z,87.53
2023-05-22T02:44:56.526Z,89.17
2023-05-22T02:47:25.759Z,90.37
2023-05-22T02:49:58.146Z,93.17
2023-05-22T02:52:28.663Z,90.03
2023-05-22T02:54:57.749Z,92.90
2023-05-22T02:57:27.304Z,97.80
2023-05-22T02:59:57.837Z,94.67
2023-05-22T03:02:28.728Z,103.50
2023-05-22T03:04:59.924Z,106.40
2023-05-22T03:07:29.902Z,99.07
2023-05-22T03:09:59.228Z,103.00
2023-05-22T03:12:28.260Z,100.00
2023-05-22T03:14:57.546Z,99.67
2023-05-22T03:17:26.506Z,100.07
2023-05-22T03:19:55.476Z,89.43
2023-05-22T03:22:26.468Z,89.27
2023-05-22T03:24:55.605Z,95.97
2023-05-22T03:27:24.610Z,99.80
2023-05-22T03:29:53.739Z,104.90
2023-05-22T03:32:24.005Z,96.90
2023-05-22T03:34:53.259Z,102.50
2023-05-22T03:37:22.305Z,89.17
2023-05-22T03:39:52.800Z,85.17
2023-05-22T03:42:28.950Z,90.57
2023-05-22T03:44:59.196Z,96.47
2023-05-22T03:47:28.725Z,85.20
2023-05-22T03:49:58.003Z,92.23
2023-05-22T03:52:27.207Z,97.13
2023-05-22T03:54:57.937Z,102.73
2023-05-22T03:57:27.303Z,94.53
2023-05-22T04:00:02.990Z,109.60
2023-05-22T04:02:45.231Z,114.90
2023-05-22T04:05:15.518Z,109.90
2023-05-22T04:07:45.851Z,135.23
2023-05-22T04:10:16.394Z,123.03
2023-05-22T04:13:03.846Z,114.13
2023-05-22T04:15:34.102Z,119.63
2023-05-22T04:18:03.320Z,126.00
2023-05-22T04:20:32.501Z,128.67
2023-05-22T04:23:02.025Z,119.83
2023-05-22T04:25:34.606Z,115.87
2023-05-22T04:28:04.663Z,110.73
2023-05-22T04:30:34.901Z,125.87
2023-05-22T04:33:05.843Z,111.37
2023-05-22T04:35:35.475Z,117.47
2023-05-22T04:38:06.900Z,124.63
2023-05-22T04:40:38.366Z,129.37
2023-05-22T04:43:27.624Z,115.10
2023-05-22T04:45:58.348Z,105.43
2023-05-22T04:48:28.666Z,102.33
2023-05-22T04:50:58.906Z,101.83
2023-05-22T04:53:33.875Z,116.23
2023-05-22T04:56:08.839Z,131.40
2023-05-22T04:58:38.604Z,113.83
2023-05-22T05:01:09.725Z,108.27
2023-05-22T05:03:40.125Z,108.90
2023-05-22T05:06:09.841Z,99.07
2023-05-22T05:08:38.987Z,108.87
2023-05-22T05:11:09.369Z,137.60
2023-05-22T05:13:38.492Z,170.50
2023-05-22T05:16:08.199Z,137.37
2023-05-22T05:18:37.394Z,151.13
2023-05-22T05:21:06.848Z,210.47
2023-05-22T05:23:36.515Z,198.17
2023-05-22T05:26:05.845Z,134.20
2023-05-22T05:28:36.548Z,130.80
2023-05-22T05:31:07.952Z,136.07
2023-05-22T05:34:13.695Z,127.13
2023-05-22T05:37:03.330Z,119.90
2023-05-22T05:39:33.011Z,203.27
2023-05-22T05:42:04.813Z,134.00
2023-05-22T05:44:35.661Z,103.27
2023-05-22T05:47:08.017Z,98.43
2023-05-22T05:49:38.037Z,117.70
2023-05-22T05:52:09.555Z,112.27
2023-05-22T05:54:38.993Z,132.27
2023-05-22T05:57:16.795Z,77.07
2023-05-22T05:59:47.580Z,103.60
2023-05-22T06:02:35.391Z,89.87
2023-05-22T06:05:05.662Z,101.57
2023-05-22T06:07:40.001Z,84.17
2023-05-22T06:10:12.270Z,121.33
2023-05-22T06:12:54.243Z,113.77
2023-05-22T06:15:25.105Z,78.57
2023-05-22T06:17:54.778Z,78.37
2023-05-22T06:20:25.288Z,77.93
2023-05-22T06:22:54.478Z,73.07
2023-05-22T06:25:23.993Z,79.27
2023-05-22T06:27:53.132Z,68.93
2023-05-22T06:30:43.550Z,61.77
2023-05-22T06:33:18.147Z,67.30
2023-05-22T06:35:47.952Z,61.60
2023-05-22T06:38:18.283Z,60.47
2023-05-22T06:40:47.487Z,100.17
2023-05-22T06:43:20.384Z,101.33
2023-05-22T06:45:56.614Z,77.73
2023-05-22T06:48:38.981Z,84.57
2023-05-22T06:51:19.596Z,70.47
2023-05-22T06:53:52.951Z,55.40
2023-05-22T06:56:26.243Z,93.37
2023-05-22T06:59:15.695Z,57.77
2023-05-22T07:02:03.171Z,74.47
2023-05-22T07:04:48.997Z,82.53
2023-05-22T07:07:25.406Z,74.77
2023-05-22T07:09:54.952Z,63.13
2023-05-22T07:12:26.478Z,56.77
2023-05-22T07:14:57.469Z,59.00
2023-05-22T07:17:27.882Z,63.10
2023-05-22T07:19:59.955Z,75.03
2023-05-22T07:22:30.462Z,74.63
2023-05-22T07:25:00.254Z,74.27
2023-05-22T07:27:33.751Z,90.67
2023-05-22T07:30:05.974Z,66.77
2023-05-22T07:32:35.986Z,85.60
2023-05-22T07:35:26.446Z,71.97
2023-05-22T07:37:55.717Z,105.47
2023-05-22T07:40:26.982Z,64.17
2023-05-22T07:42:56.424Z,78.60
2023-05-22T07:45:26.785Z,50.47
2023-05-22T07:47:59.225Z,61.43
2023-05-22T07:50:30.704Z,48.00
2023-05-22T07:53:00.206Z,59.00
2023-05-22T07:55:29.681Z,84.50
2023-05-22T07:57:58.973Z,58.63
2023-05-22T08:00:35.702Z,62.13
2023-05-22T08:03:05.650Z,63.73
2023-05-22T08:05:36.620Z,63.10
2023-05-22T08:08:06.339Z,86.90
2023-05-22T08:10:52.035Z,68.07
2023-05-22T08:13:25.183Z,57.80
2023-05-22T08:16:05.398Z,60.90
2023-05-22T08:18:36.772Z,65.07
2023-05-22T08:21:07.812Z,45.83
2023-05-22T08:23:39.231Z,82.73
2023-05-22T08:26:10.293Z,36.50
2023-05-22T08:28:44.524Z,66.60
2023-05-22T08:31:20.448Z,57.10
2023-05-22T08:33:53.715Z,62.93
2023-05-22T08:36:24.920Z,66.23
2023-05-22T08:39:12.588Z,41.80
2023-05-22T08:41:43.446Z,42.37
2023-05-22T08:44:13.689Z,61.97
2023-05-22T08:46:44.434Z,54.90
2023-05-22T08:49:15.164Z,41.23
2023-05-22T08:51:49.712Z,97.00
2023-05-22T08:54:23.157Z,53.60
2023-05-22T08:56:56.776Z,56.73
2023-05-22T08:59:27.144Z,36.80
2023-05-22T09:01:58.205Z,36.57
2023-05-22T09:04:28.804Z,34.63
2023-05-22T09:07:05.946Z,61.73
2023-05-22T09:09:38.752Z,33.60
2023-05-22T09:12:19.769Z,56.40
2023-05-22T09:14:55.234Z,29.57
2023-05-22T09:17:43.229Z,21.27
2023-05-22T09:20:16.057Z,29.33
2023-05-22T09:22:58.179Z,22.47
2023-05-22T09:25:34.463Z,77.53
2023-05-22T09:28:14.487Z,44.17
2023-05-22T09:30:49.817Z,18.97
2023-05-22T09:33:20.386Z,20.63
2023-05-22T09:35:50.042Z,25.77
2023-05-22T09:38:40.529Z,21.93
2023-05-22T09:41:11.854Z,23.83
2023-05-22T09:43:41.123Z,29.10
2023-05-22T09:46:34.111Z,13.73
2023-05-22T09:49:06.306Z,23.53
2023-05-22T09:51:37.399Z,17.23
2023-05-22T09:54:10.055Z,17.97
2023-05-22T09:56:40.357Z,41.17
2023-05-22T09:59:11.067Z,45.97
2023-05-22T10:01:41.308Z,25.40
2023-05-22T10:04:14.545Z,31.47
2023-05-22T10:06:49.522Z,55.60
2023-05-22T10:09:23.254Z,40.17
2023-05-22T10:11:54.190Z,62.97
2023-05-22T10:14:24.061Z,127.00
2023-05-22T10:17:12.732Z,27.87
2023-05-22T10:19:44.686Z,55.57
2023-05-22T10:22:21.127Z,47.23
2023-05-22T10:24:52.829Z,44.83
2023-05-22T10:27:30.489Z,17.03
2023-05-22T10:30:12.436Z,24.63
2023-05-22T10:32:56.858Z,23.53
2023-05-22T10:35:35.090Z,30.03
2023-05-22T10:38:31.044Z,22.57
2023-05-22T10:41:04.905Z,15.40
2023-05-22T10:43:34.239Z,43.33
2023-05-22T10:46:12.720Z,41.50
2023-05-22T10:48:46.837Z,27.73
2023-05-22T10:51:16.853Z,26.93
2023-05-22T10:53:46.661Z,31.67
2023-05-22T10:56:18.128Z,33.80
2023-05-22T10:58:57.315Z,65.07
2023-05-22T11:01:28.044Z,37.93
2023-05-22T11:04:14.564Z,22.67
2023-05-22T11:06:49.249Z,16.73
2023-05-22T11:09:28.130Z,36.87
2023-05-22T11:12:31.727Z,19.67
2023-05-22T11:15:19.304Z,34.70
2023-05-22T11:17:52.058Z,42.43
2023-05-22T11:20:24.574Z,25.97
2023-05-22T11:23:00.431Z,42.80
2023-05-22T11:25:30.218Z,22.27
2023-05-22T11:28:03.783Z,50.60
2023-05-22T11:30:33.598Z,22.37
2023-05-22T11:33:03.541Z,20.80
2023-05-22T11:35:32.580Z,16.13
2023-05-22T11:38:05.241Z,23.50
2023-05-22T11:40:35.615Z,24.73
2023-05-22T11:43:06.227Z,90.67
2023-05-22T11:45:39.449Z,99.30
2023-05-22T11:48:13.927Z,52.00
2023-05-22T11:51:00.200Z,76.10
2023-05-22T11:53:54.658Z,37.30
2023-05-22T11:56:31.195Z,16.53
2023-05-22T11:59:01.801Z,29.57
2023-05-22T12:01:32.018Z,29.10
2023-05-22T12:04:01.517Z,29.27
2023-05-22T12:06:33.465Z,30.67
2023-05-22T12:09:03.019Z,23.77
2023-05-22T12:11:36.604Z,35.87
2023-05-22T12:14:07.306Z,32.27
2023-05-22T12:16:37.876Z,25.23
2023-05-22T12:19:08.140Z,16.23
2023-05-22T12:21:37.987Z,15.73
2023-05-22T12:24:08.628Z,25.60
2023-05-22T12:26:57.168Z,39.77
2023-05-22T12:29:38.652Z,39.43
2023-05-22T12:32:10.066Z,30.20
2023-05-22T12:34:45.823Z,27.67
2023-05-22T12:37:21.971Z,34.93
2023-05-22T12:39:57.791Z,35.33
2023-05-22T12:42:27.991Z,38.27
2023-05-22T12:45:00.884Z,119.27
2023-05-22T12:47:30.161Z,34.10
2023-05-22T12:49:59.062Z,29.73
2023-05-22T12:52:28.049Z,19.07
2023-05-22T12:54:57.110Z,97.63
2023-05-22T12:57:26.127Z,59.40
2023-05-22T12:59:55.160Z,32.57
2023-05-22T13:02:26.055Z,54.80
2023-05-22T13:04:55.366Z,40.80
2023-05-22T13:07:24.450Z,24.53
2023-05-22T13:09:53.398Z,26.13
2023-05-22T13:12:22.572Z,47.47
2023-05-22T13:14:52.934Z,39.67
2023-05-22T13:17:21.878Z,22.50
2023-05-22T13:19:52.384Z,44.30
2023-05-22T13:22:21.723Z,25.87
2023-05-22T13:24:50.917Z,44.90
2023-05-22T13:27:20.757Z,11.50
2023-05-22T13:29:52.359Z,10.00
2023-05-22T13:32:22.810Z,19.57
2023-05-22T13:35:01.856Z,15.03
2023-05-22T13:37:35.006Z,40.33
2023-05-22T13:40:04.098Z,151.50
2023-05-22T13:42:33.337Z,78.60
2023-05-22T13:45:02.268Z,35.70
2023-05-22T13:47:42.953Z,22.90
2023-05-22T13:50:15.994Z,170.93
2023-05-22T13:52:45.135Z,81.27
2023-05-22T13:55:14.030Z,46.73
2023-05-22T13:57:43.090Z,80.27
2023-05-22T14:00:13.142Z,51.07
2023-05-22T14:02:42.410Z,46.80
2023-05-22T14:05:15.711Z,50.53
2023-05-22T14:07:44.687Z,33.00
2023-05-22T14:10:13.811Z,31.17
2023-05-22T14:12:42.765Z,54.57
2023-05-22T14:15:12.765Z,47.93
2023-05-22T14:17:41.982Z,19.83
2023-05-22T14:20:11.898Z,47.30
2023-05-22T14:25:24.816Z,41.27
2023-05-22T14:27:53.873Z,33.80
2023-05-22T14:30:22.770Z,22.70
2023-05-22T14:33:11.700Z,51.57
2023-05-22T14:35:40.830Z,30.00
2023-05-22T14:38:11.545Z,11.80
2023-05-22T14:40:40.611Z,31.33
2023-05-22T14:43:09.520Z,26.07
2023-05-22T14:45:39.111Z,48.27
2023-05-22T14:48:10.947Z,44.17
2023-05-22T14:50:40.307Z,43.90
2023-05-22T14:53:10.702Z,18.50
2023-05-22T14:55:39.807Z,35.17
2023-05-22T14:58:27.419Z,13.77
2023-05-22T15:00:56.609Z,30.10
2023-05-22T15:03:26.391Z,24.57
2023-05-22T15:05:55.274Z,62.67
2023-05-22T15:08:25.813Z,28.50
2023-05-22T15:10:54.968Z,54.80
2023-05-22T15:13:23.941Z,67.17
2023-05-22T15:15:53.381Z,50.63
2023-05-22T15:18:22.600Z,65.63
2023-05-22T15:20:51.626Z,55.07
2023-05-22T15:23:25.282Z,37.10
2023-05-22T15:25:56.447Z,33.87
2023-05-22T15:28:25.500Z,38.27
2023-05-22T15:30:54.525Z,41.57
2023-05-22T15:33:24.357Z,36.30
2023-05-22T15:35:58.737Z,56.87
2023-05-22T15:38:28.406Z,59.07
2023-05-22T15:40:59.613Z,58.27
2023-05-22T15:43:29.942Z,106.90
2023-05-22T15:45:59.088Z,60.37
2023-05-22T15:48:28.273Z,48.40
2023-05-22T15:50:57.396Z,28.57
2023-05-22T15:53:26.294Z,48.00
2023-05-22T15:55:56.611Z,39.93
2023-05-22T15:58:28.813Z,26.27
2023-05-22T16:00:58.139Z,22.50
2023-05-22T16:03:27.857Z,17.97
2023-05-22T16:05:56.902Z,28.57
2023-05-22T16:08:26.651Z,35.17
2023-05-22T16:11:01.486Z,25.23
2023-05-22T16:13:33.226Z,15.33
2023-05-22T16:16:03.544Z,18.33
2023-05-22T16:18:32.740Z,17.07
2023-05-22T16:21:01.834Z,31.40
2023-05-22T16:23:30.795Z,18.00
2023-05-22T16:25:59.742Z,21.77
2023-05-22T16:28:28.631Z,17.07
2023-05-22T16:30:59.171Z,12.90
2023-05-22T16:33:28.124Z,24.37
2023-05-22T16:35:57.176Z,16.67
2023-05-22T16:38:26.054Z,18.33
2023-05-22T16:40:55.177Z,19.53
2023-05-22T16:43:24.167Z,21.73
2023-05-22T16:45:53.413Z,17.30
2023-05-22T16:48:23.865Z,21.97
2023-05-22T16:50:59.382Z,11.83
2023-05-22T16:53:29.473Z,17.50
2023-05-22T16:56:00.085Z,14.47
2023-05-22T16:58:29.136Z,15.57
2023-05-22T17:00:58.449Z,22.87
2023-05-22T17:03:29.022Z,22.43
2023-05-22T17:05:58.287Z,25.67
2023-05-22T17:08:28.555Z,30.27
2023-05-22T17:11:01.112Z,29.27
2023-05-22T17:13:31.362Z,51.77
2023-05-22T17:16:00.378Z,41.93
2023-05-22T17:18:30.895Z,39.27
2023-05-22T17:21:00.664Z,28.30
2023-05-22T17:23:30.361Z,28.07
2023-05-22T17:25:59.315Z,28.13
2023-05-22T17:28:28.411Z,23.93
2023-05-22T17:30:57.753Z,26.30
2023-05-22T17:33:26.711Z,29.93
2023-05-22T17:35:57.310Z,22.60
2023-05-22T17:38:26.390Z,27.87
2023-05-22T17:40:55.702Z,38.33
2023-05-22T17:43:24.700Z,35.13
2023-05-22T17:45:54.602Z,22.83
2023-05-22T17:48:27.487Z,22.97
2023-05-22T17:50:58.252Z,31.77
2023-05-22T17:53:34.799Z,18.93
2023-05-22T17:56:04.975Z,50.93
2023-05-22T17:58:33.996Z,54.97
2023-05-22T18:01:02.967Z,50.07
2023-05-22T18:03:32.625Z,54.27
2023-05-22T18:06:03.418Z,27.27
2023-05-22T18:08:33.546Z,23.07
2023-05-22T18:11:02.860Z,24.23
2023-05-22T18:13:31.834Z,32.77
2023-05-22T18:16:12.360Z,24.37
2023-05-22T18:18:41.466Z,28.07
2023-05-22T18:21:11.885Z,31.90
2023-05-22T18:23:41.578Z,21.73
2023-05-22T18:26:11.071Z,21.03
2023-05-22T18:28:39.923Z,21.13
2023-05-22T18:31:09.057Z,13.77
2023-05-22T18:33:39.557Z,37.97
2023-05-22T18:36:08.698Z,36.17
2023-05-22T18:38:39.512Z,35.83
2023-05-22T18:41:08.949Z,23.70
2023-05-22T18:43:37.871Z,12.00
2023-05-22T18:46:09.168Z,13.13
2023-05-22T18:48:38.550Z,12.67
2023-05-22T18:51:07.511Z,13.53
2023-05-22T18:53:36.581Z,9.00
2023-05-22T18:56:07.680Z,8.23
2023-05-22T18:58:41.329Z,10.37
2023-05-22T19:01:28.718Z,12.47
2023-05-22T19:03:57.711Z,11.90
2023-05-22T19:06:46.114Z,8.03
2023-05-22T19:09:16.027Z,13.37
2023-05-22T19:11:47.026Z,15.47
2023-05-22T19:14:17.648Z,16.63
2023-05-22T19:16:46.756Z,27.40
2023-05-22T19:19:15.827Z,23.20
2023-05-22T19:21:44.990Z,28.73
2023-05-22T19:24:14.075Z,26.30
2023-05-22T19:26:43.208Z,22.73
2023-05-22T19:29:13.592Z,13.50
2023-05-22T19:31:56.728Z,13.67
2023-05-22T19:34:29.921Z,17.07
2023-05-22T19:36:59.190Z,12.43
2023-05-22T19:39:28.374Z,19.70
2023-05-22T19:41:57.443Z,20.97
2023-05-22T19:44:46.376Z,38.63
2023-05-22T19:47:15.617Z,24.90
2023-05-22T19:49:44.584Z,26.23
2023-05-22T19:52:13.561Z,33.53
2023-05-22T19:54:42.590Z,41.57
2023-05-22T19:57:11.564Z,37.53
2023-05-22T19:59:54.901Z,38.73
2023-05-22T20:02:24.185Z,47.20
2023-05-22T20:04:54.989Z,29.07
2023-05-22T20:07:23.947Z,26.80
2023-05-22T20:09:52.887Z,25.77
2023-05-22T20:12:22.006Z,23.33
2023-05-22T20:14:52.367Z,26.17
2023-05-22T20:17:22.952Z,29.07
2023-05-22T20:19:52.166Z,27.50
2023-05-22T20:22:21.019Z,28.30
2023-05-22T20:24:50.078Z,28.00
2023-05-22T20:27:18.980Z,27.07
2023-05-22T20:29:50.475Z,28.17
2023-05-22T20:32:20.922Z,21.50
2023-05-22T20:34:52.483Z,21.63
2023-05-22T20:37:29.762Z,17.40
2023-05-22T20:40:09.806Z,24.40
2023-05-22T20:42:39.342Z,22.43
2023-05-22T20:45:12.866Z,22.60
2023-05-22T20:47:45.050Z,20.93
2023-05-22T20:50:14.583Z,18.10
2023-05-22T20:52:46.104Z,20.27
2023-05-22T20:55:16.218Z,23.13
2023-05-22T20:57:54.634Z,15.10
2023-05-22T21:00:24.605Z,21.47
2023-05-22T21:02:57.068Z,18.00
2023-05-22T21:05:27.580Z,21.53
2023-05-22T21:07:56.522Z,23.00
2023-05-22T21:10:25.337Z,49.73
2023-05-22T21:12:57.059Z,38.80
2023-05-22T21:15:26.510Z,28.37
2023-05-22T21:17:57.333Z,26.37
2023-05-22T21:20:26.410Z,22.33
2023-05-22T21:22:56.158Z,31.47
2023-05-22T21:25:25.712Z,48.57
2023-05-22T21:27:55.377Z,26.17
2023-05-22T21:30:24.166Z,25.53
2023-05-22T21:32:53.286Z,30.30
2023-05-22T21:35:23.943Z,29.13
2023-05-22T21:37:53.733Z,23.13
2023-05-22T21:40:22.742Z,22.40
2023-05-22T21:42:51.620Z,31.03
2023-05-22T21:45:21.761Z,31.07
2023-05-22T21:47:50.800Z,27.97
2023-05-22T21:50:20.371Z,23.43
2023-05-22T21:52:51.005Z,26.53
2023-05-22T21:55:20.164Z,19.60
2023-05-22T21:57:50.356Z,22.63
2023-05-22T22:00:20.477Z,21.70
2023-05-22T22:02:49.745Z,28.13
2023-05-22T22:05:19.170Z,20.77
2023-05-22T22:07:49.753Z,21.30
2023-05-22T22:10:18.962Z,20.23
2023-05-22T22:12:48.171Z,21.37
2023-05-22T22:15:17.785Z,24.80
2023-05-22T22:17:47.940Z,32.93
2023-05-22T22:20:18.651Z,40.97
2023-05-22T22:22:51.613Z,25.73
2023-05-22T22:25:22.807Z,25.23
2023-05-22T22:27:52.258Z,24.30
2023-05-22T22:30:21.498Z,23.27
2023-05-22T22:32:50.403Z,20.87
2023-05-22T22:35:19.280Z,27.63
2023-05-22T22:37:48.480Z,25.30
2023-05-22T22:40:19.364Z,21.53
2023-05-22T22:42:48.349Z,24.00
2023-05-22T22:45:17.415Z,20.13
2023-05-22T22:47:46.893Z,18.67
2023-05-22T22:50:16.210Z,19.90
2023-05-22T22:52:46.758Z,17.13
2023-05-22T22:55:15.652Z,21.70
2023-05-22T22:57:48.072Z,20.90
2023-05-22T23:00:17.424Z,22.80
2023-05-22T23:02:46.438Z,23.57
2023-05-22T23:05:20.458Z,20.80
2023-05-22T23:07:49.897Z,23.60
2023-05-22T23:10:19.070Z,22.57
2023-05-22T23:12:50.572Z,25.80
2023-05-22T23:15:19.813Z,30.47
2023-05-22T23:17:51.017Z,28.43
2023-05-22T23:20:20.867Z,27.07
2023-05-22T23:22:49.992Z,26.47
2023-05-22T23:25:18.952Z,30.13
2023-05-22T23:27:49.595Z,37.33
2023-05-22T23:30:18.733Z,32.90
2023-05-22T23:32:47.585Z,57.30
2023-05-22T23:35:16.649Z,45.23
2023-05-22T23:37:45.614Z,48.23
2023-05-22T23:40:14.918Z,50.00
2023-05-22T23:42:44.070Z,47.97
2023-05-22T23:45:14.581Z,48.70
2023-05-22T23:47:43.515Z,46.17
2023-05-22T23:50:13.048Z,51.23
2023-05-22T23:52:42.010Z,42.20
2023-05-22T23:55:11.404Z,40.50
2023-05-22T23:57:40.318Z,38.63
